createdAt,value
2023-07-29T00:00:29.316Z,24.24
2023-07-29T00:03:17.024Z,23.21
2023-07-29T00:05:44.911Z,22.53
2023-07-29T00:08:12.676Z,22.40
2023-07-29T00:10:40.438Z,23.71
2023-07-29T00:13:08.203Z,24.81
2023-07-29T00:15:35.966Z,24.50
2023-07-29T00:18:03.899Z,23.50
2023-07-29T00:20:31.557Z,22.72
2023-07-29T00:23:00.236Z,22.51
2023-07-29T00:25:27.829Z,23.84
2023-07-29T00:27:55.491Z,24.76
2023-07-29T00:30:23.107Z,24.11
2023-07-29T00:32:50.752Z,23.18
2023-07-29T00:35:18.425Z,22.48
2023-07-29T00:37:46.101Z,21.97
2023-07-29T00:40:13.919Z,22.39
2023-07-29T00:42:41.990Z,23.94
2023-07-29T00:45:09.764Z,24.69
2023-07-29T00:47:37.533Z,23.90
2023-07-29T00:50:05.402Z,22.96
2023-07-29T00:52:33.149Z,22.28
2023-07-29T00:55:00.875Z,22.19
2023-07-29T00:57:29.601Z,23.60
2023-07-29T00:59:57.262Z,24.55
2023-07-29T01:02:25.160Z,23.85
2023-07-29T01:04:52.999Z,22.87
2023-07-29T01:07:20.765Z,22.11
2023-07-29T01:09:48.529Z,22.00
2023-07-29T01:12:16.626Z,23.40
2023-07-29T01:14:44.275Z,24.54
2023-07-29T01:17:12.152Z,24.23
2023-07-29T01:19:39.897Z,23.13
2023-07-29T01:22:07.657Z,22.26
2023-07-29T01:24:35.521Z,22.03
2023-07-29T01:27:05.229Z,23.34
2023-07-29T01:29:32.897Z,24.46
2023-07-29T01:32:00.762Z,24.22
2023-07-29T01:34:28.525Z,23.12
2023-07-29T01:36:56.100Z,22.22
2023-07-29T01:39:23.858Z,21.94
2023-07-29T01:41:51.842Z,23.20
2023-07-29T01:44:19.583Z,24.31
2023-07-29T01:46:47.346Z,24.48
2023-07-29T01:49:15.120Z,23.42
2023-07-29T01:51:42.772Z,22.39
2023-07-29T01:54:10.540Z,22.04
2023-07-29T01:56:38.720Z,23.27
2023-07-29T01:59:06.474Z,24.35
2023-07-29T02:01:34.267Z,24.03
2023-07-29T02:04:02.139Z,22.94
2023-07-29T02:06:29.867Z,22.08
2023-07-29T02:08:57.634Z,21.87
2023-07-29T02:11:29.171Z,23.20
2023-07-29T02:13:57.259Z,24.31
2023-07-29T02:16:25.180Z,23.88
2023-07-29T02:18:55.827Z,22.81
2023-07-29T02:21:24.187Z,21.93
2023-07-29T02:23:51.899Z,21.69
2023-07-29T02:26:19.983Z,23.00
2023-07-29T02:28:47.947Z,24.14
2023-07-29T02:31:16.049Z,23.97
2023-07-29T02:33:43.924Z,22.88
2023-07-29T02:36:11.748Z,21.94
2023-07-29T02:38:39.414Z,21.64
2023-07-29T02:41:07.596Z,22.90
2023-07-29T02:43:35.343Z,24.03
2023-07-29T02:46:03.131Z,23.86
2023-07-29T02:48:31.404Z,22.79
2023-07-29T02:50:59.153Z,21.92
2023-07-29T02:53:26.817Z,21.69
2023-07-29T02:55:55.381Z,23.03
2023-07-29T02:58:22.994Z,24.08
2023-07-29T03:00:51.461Z,23.58
2023-07-29T03:03:20.889Z,22.57
2023-07-29T03:05:49.024Z,21.78
2023-07-29T03:08:16.780Z,21.58
2023-07-29T03:10:44.441Z,22.90
2023-07-29T03:13:12.122Z,24.01
2023-07-29T03:15:40.070Z,23.71
2023-07-29T03:18:07.852Z,22.66
2023-07-29T03:20:35.601Z,21.83
2023-07-29T03:23:04.193Z,21.66
2023-07-29T03:25:31.779Z,23.05
2023-07-29T03:27:59.435Z,24.18
2023-07-29T03:30:27.098Z,23.84
2023-07-29T03:32:54.875Z,22.82
2023-07-29T03:35:22.700Z,21.99
2023-07-29T03:37:50.368Z,21.77
2023-07-29T03:40:19.439Z,23.06
2023-07-29T03:42:47.426Z,24.22
2023-07-29T03:45:15.698Z,23.95
2023-07-29T03:47:43.501Z,22.90
2023-07-29T03:50:11.341Z,22.03
2023-07-29T03:52:39.094Z,21.79
2023-07-29T03:55:06.862Z,23.08
2023-07-29T03:57:34.641Z,24.23
2023-07-29T04:00:02.392Z,24.16
2023-07-29T04:02:30.171Z,23.11
2023-07-29T04:04:58.092Z,22.17
2023-07-29T04:07:25.892Z,21.91
2023-07-29T04:09:53.858Z,23.15
2023-07-29T04:12:22.850Z,24.24
2023-07-29T04:14:50.615Z,24.20
2023-07-29T04:17:18.287Z,23.15
2023-07-29T04:19:46.042Z,22.25
2023-07-29T04:22:13.806Z,21.97
2023-07-29T04:24:41.571Z,23.23
2023-07-29T04:27:09.333Z,24.35
2023-07-29T04:29:37.305Z,24.25
2023-07-29T04:32:05.081Z,23.17
2023-07-29T04:34:34.062Z,22.25
2023-07-29T04:37:01.827Z,22.04
2023-07-29T04:39:29.597Z,23.35
2023-07-29T04:41:58.696Z,24.49
2023-07-29T04:44:26.454Z,24.82
2023-07-29T04:46:54.214Z,23.83
2023-07-29T04:49:21.875Z,22.86
2023-07-29T04:51:49.543Z,22.46
2023-07-29T04:54:17.521Z,23.67
2023-07-29T04:56:45.277Z,24.81
2023-07-29T04:59:14.367Z,25.13
2023-07-29T05:01:43.784Z,24.16
2023-07-29T05:04:11.537Z,23.17
2023-07-29T05:06:39.988Z,22.44
2023-07-29T05:09:07.985Z,22.40
2023-07-29T05:11:35.662Z,23.81
2023-07-29T05:14:04.541Z,24.99
2023-07-29T05:16:32.302Z,25.09
2023-07-29T05:19:00.069Z,24.08
2023-07-29T05:21:28.043Z,23.21
2023-07-29T05:23:55.696Z,22.96
2023-07-29T05:26:23.359Z,24.20
2023-07-29T05:28:51.130Z,25.28
2023-07-29T05:31:19.201Z,24.96
2023-07-29T05:33:47.020Z,23.97
2023-07-29T05:36:14.827Z,23.18
2023-07-29T05:38:42.484Z,23.04
2023-07-29T05:41:10.253Z,24.37
2023-07-29T05:43:38.022Z,25.41
2023-07-29T05:46:05.811Z,25.32
2023-07-29T05:48:34.045Z,24.31
2023-07-29T05:51:01.710Z,23.50
2023-07-29T05:53:29.309Z,23.31
2023-07-29T05:55:56.923Z,24.60
2023-07-29T05:58:24.970Z,25.67
2023-07-29T06:00:53.048Z,25.38
2023-07-29T06:03:20.949Z,24.41
2023-07-29T06:05:50.411Z,23.61
2023-07-29T06:08:19.042Z,23.50
2023-07-29T06:10:46.807Z,24.87
2023-07-29T06:13:14.473Z,25.92
2023-07-29T06:15:42.157Z,25.55
2023-07-29T06:18:09.994Z,24.59
2023-07-29T06:20:37.763Z,23.88
2023-07-29T06:23:05.526Z,23.39
2023-07-29T06:25:33.303Z,24.05
2023-07-29T06:28:01.196Z,25.54
2023-07-29T06:30:29.047Z,26.20
2023-07-29T06:32:56.824Z,25.42
2023-07-29T06:35:24.961Z,24.47
2023-07-29T06:37:52.569Z,23.79
2023-07-29T06:40:20.297Z,23.68
2023-07-29T06:42:47.905Z,25.04
2023-07-29T06:45:16.940Z,25.95
2023-07-29T06:47:44.653Z,25.26
2023-07-29T06:50:12.412Z,24.33
2023-07-29T06:52:41.672Z,23.69
2023-07-29T06:55:09.538Z,23.74
2023-07-29T06:57:37.297Z,25.12
2023-07-29T07:00:05.474Z,25.90
2023-07-29T07:02:33.290Z,25.20
2023-07-29T07:05:01.311Z,24.28
2023-07-29T07:07:29.069Z,24.17
2023-07-29T07:09:57.982Z,25.50
2023-07-29T07:12:27.670Z,26.28
2023-07-29T07:14:55.646Z,25.61
2023-07-29T07:17:23.447Z,24.75
2023-07-29T07:19:51.491Z,24.14
2023-07-29T07:22:19.753Z,24.09
2023-07-29T07:24:47.569Z,25.46
2023-07-29T07:27:15.396Z,26.39
2023-07-29T07:29:43.146Z,25.81
2023-07-29T07:32:10.890Z,24.98
2023-07-29T07:34:38.576Z,24.36
2023-07-29T07:37:06.377Z,23.94
2023-07-29T07:39:34.115Z,24.09
2023-07-29T07:42:02.096Z,25.63
2023-07-29T07:44:29.838Z,26.73
2023-07-29T07:46:57.611Z,26.40
2023-07-29T07:49:25.374Z,25.53
2023-07-29T07:51:53.341Z,24.86
2023-07-29T07:54:21.108Z,24.38
2023-07-29T07:56:48.762Z,24.05
2023-07-29T07:59:18.067Z,24.27
2023-07-29T08:01:46.240Z,25.86
2023-07-29T08:04:14.205Z,26.62
2023-07-29T08:06:41.779Z,25.95
2023-07-29T08:09:09.473Z,25.21
2023-07-29T08:11:37.063Z,24.67
2023-07-29T08:14:04.688Z,24.30
2023-07-29T08:16:32.373Z,24.40
2023-07-29T08:19:00.096Z,25.89
2023-07-29T08:21:27.670Z,26.89
2023-07-29T08:23:55.264Z,26.37
2023-07-29T08:26:22.875Z,25.62
2023-07-29T08:28:53.098Z,25.06
2023-07-29T08:31:22.648Z,24.65
2023-07-29T08:33:50.482Z,24.37
2023-07-29T08:36:18.059Z,24.56
2023-07-29T08:38:45.694Z,26.08
2023-07-29T08:41:13.340Z,26.50
2023-07-29T08:43:41.181Z,25.85
2023-07-29T08:46:08.760Z,25.27
2023-07-29T08:48:36.326Z,24.85
2023-07-29T08:51:03.911Z,24.56
2023-07-29T08:53:31.503Z,24.35
2023-07-29T08:55:59.379Z,24.18
2023-07-29T08:58:26.996Z,24.46
2023-07-29T09:00:54.669Z,26.07
2023-07-29T09:03:22.634Z,27.07
2023-07-29T09:05:50.373Z,26.56
2023-07-29T09:08:18.050Z,25.89
2023-07-29T09:10:45.814Z,25.42
2023-07-29T09:13:13.486Z,25.12
2023-07-29T09:15:43.471Z,24.89
2023-07-29T09:18:11.256Z,24.73
2023-07-29T09:20:39.306Z,24.60
2023-07-29T09:23:07.018Z,24.50
2023-07-29T09:25:35.282Z,24.84
2023-07-29T09:28:03.086Z,26.52
2023-07-29T09:30:32.072Z,27.58
2023-07-29T09:33:00.008Z,27.14
2023-07-29T09:35:28.758Z,26.52
2023-07-29T09:38:03.553Z,26.10
2023-07-29T09:40:31.446Z,25.85
2023-07-29T09:42:59.482Z,25.65
2023-07-29T09:45:27.593Z,25.48
2023-07-29T09:47:55.390Z,25.38
2023-07-29T09:50:23.785Z,25.32
2023-07-29T09:52:51.481Z,25.32
2023-07-29T09:55:19.184Z,25.73
2023-07-29T09:57:47.456Z,27.45
2023-07-29T10:00:16.345Z,28.54
2023-07-29T10:02:44.250Z,28.08
2023-07-29T10:05:12.024Z,27.41
2023-07-29T10:07:39.652Z,26.92
2023-07-29T10:10:07.405Z,26.56
2023-07-29T10:12:35.046Z,26.29
2023-07-29T10:15:02.748Z,26.06
2023-07-29T10:17:30.406Z,25.85
2023-07-29T10:20:01.095Z,25.67
2023-07-29T10:22:28.715Z,25.51
2023-07-29T10:24:57.723Z,25.39
2023-07-29T10:27:25.588Z,25.31
2023-07-29T10:29:53.225Z,25.28
2023-07-29T10:32:21.113Z,25.31
2023-07-29T10:34:48.870Z,25.78
2023-07-29T10:37:16.455Z,27.28
2023-07-29T10:39:44.208Z,27.43
2023-07-29T10:42:11.848Z,27.10
2023-07-29T10:44:39.579Z,26.88
2023-07-29T10:47:07.348Z,26.77
2023-07-29T10:49:35.104Z,26.68
2023-07-29T10:52:02.680Z,26.55
2023-07-29T10:54:30.360Z,26.41
2023-07-29T10:56:57.953Z,26.32
2023-07-29T10:59:25.554Z,26.31
2023-07-29T11:01:53.209Z,26.33
2023-07-29T11:04:31.817Z,26.36
2023-07-29T11:06:59.753Z,26.39
2023-07-29T11:09:27.325Z,26.42
2023-07-29T11:11:54.914Z,26.40
2023-07-29T11:14:22.524Z,26.35
2023-07-29T11:16:50.115Z,26.35
2023-07-29T11:19:17.706Z,26.41
2023-07-29T11:21:45.280Z,26.49
2023-07-29T11:24:12.853Z,26.58
2023-07-29T11:26:42.570Z,26.67
2023-07-29T11:29:10.168Z,26.75
2023-07-29T11:31:37.784Z,26.84
2023-07-29T11:34:05.408Z,26.92
2023-07-29T11:36:33.105Z,27.00
2023-07-29T11:39:00.747Z,27.09
2023-07-29T11:41:28.400Z,27.14
2023-07-29T11:43:56.029Z,27.13
2023-07-29T11:46:24.035Z,27.05
2023-07-29T11:48:51.708Z,26.94
2023-07-29T11:51:19.853Z,26.82
2023-07-29T11:53:47.632Z,26.70
2023-07-29T11:56:15.336Z,26.58
2023-07-29T11:58:43.025Z,26.46
2023-07-29T12:01:10.792Z,26.35
2023-07-29T12:03:38.470Z,26.24
2023-07-29T12:06:06.087Z,26.13
2023-07-29T12:08:33.662Z,26.03
2023-07-29T12:11:01.254Z,25.94
2023-07-29T12:13:28.925Z,25.85
2023-07-29T12:15:56.509Z,25.79
2023-07-29T12:18:24.155Z,25.74
2023-07-29T12:20:51.775Z,25.70
2023-07-29T12:23:19.356Z,25.68
2023-07-29T12:25:47.028Z,25.65
2023-07-29T12:28:14.653Z,25.60
2023-07-29T12:30:42.286Z,25.56
2023-07-29T12:33:09.967Z,25.51
2023-07-29T12:35:37.879Z,25.47
2023-07-29T12:38:05.515Z,25.43
2023-07-29T12:40:33.116Z,25.38
2023-07-29T12:43:00.729Z,25.33
2023-07-29T12:45:29.884Z,25.28
2023-07-29T12:47:58.237Z,25.23
2023-07-29T12:50:26.019Z,25.17
2023-07-29T12:52:53.618Z,25.12
2023-07-29T12:55:23.654Z,25.09
2023-07-29T12:57:52.549Z,25.05
2023-07-29T13:00:20.438Z,25.01
2023-07-29T13:02:48.610Z,24.95
2023-07-29T13:05:16.486Z,24.90
2023-07-29T13:07:44.246Z,24.84
2023-07-29T13:10:11.953Z,24.79
2023-07-29T13:12:39.770Z,25.10
2023-07-29T13:15:07.644Z,26.74
2023-07-29T13:17:35.631Z,27.79
2023-07-29T13:20:03.906Z,27.31
2023-07-29T13:22:32.643Z,26.59
2023-07-29T13:25:00.649Z,26.04
2023-07-29T13:27:30.045Z,25.60
2023-07-29T13:29:58.322Z,25.21
2023-07-29T13:32:26.389Z,24.90
2023-07-29T13:38:00.324Z,24.36
2023-07-29T13:40:28.087Z,24.20
2023-07-29T13:42:56.069Z,24.37
2023-07-29T13:45:23.922Z,25.96
2023-07-29T13:47:53.907Z,27.38
2023-07-29T13:50:22.035Z,27.66
2023-07-29T13:52:49.886Z,26.86
2023-07-29T13:55:17.650Z,26.13
2023-07-29T13:57:46.025Z,25.65
2023-07-29T14:00:14.199Z,25.31
2023-07-29T14:02:42.291Z,25.66
2023-07-29T14:05:10.286Z,27.20
2023-07-29T14:07:38.015Z,27.93
2023-07-29T14:10:06.076Z,27.25
2023-07-29T14:12:33.861Z,26.45
2023-07-29T14:15:01.536Z,25.78
2023-07-29T14:17:29.478Z,25.30
2023-07-29T14:19:57.232Z,24.89
2023-07-29T14:22:24.846Z,24.54
2023-07-29T14:24:52.491Z,24.24
2023-07-29T14:27:20.120Z,24.00
2023-07-29T14:29:47.864Z,24.82
2023-07-29T14:32:15.477Z,26.42
2023-07-29T14:34:43.028Z,27.21
2023-07-29T14:37:10.615Z,26.60
2023-07-29T14:39:39.577Z,25.85
2023-07-29T14:42:07.898Z,25.33
2023-07-29T14:44:35.510Z,24.95
2023-07-29T14:47:03.091Z,24.68
2023-07-29T14:49:30.775Z,24.85
2023-07-29T14:51:58.396Z,26.38
2023-07-29T14:54:26.077Z,27.40
2023-07-29T14:56:53.728Z,26.90
2023-07-29T14:59:21.335Z,26.15
2023-07-29T15:01:48.968Z,25.60
2023-07-29T15:04:17.630Z,25.23
2023-07-29T15:06:45.236Z,25.37
2023-07-29T15:09:12.826Z,26.84
2023-07-29T15:11:41.904Z,28.01
2023-07-29T15:14:09.981Z,27.83
2023-07-29T15:16:38.815Z,27.00
2023-07-29T15:19:06.702Z,26.37
2023-07-29T15:21:34.838Z,25.94
2023-07-29T15:24:02.502Z,25.63
2023-07-29T15:26:30.093Z,25.40
2023-07-29T15:28:57.684Z,25.62
2023-07-29T15:31:25.437Z,27.12
2023-07-29T15:33:53.025Z,28.05
2023-07-29T15:36:20.597Z,27.51
2023-07-29T15:38:48.191Z,26.80
2023-07-29T15:41:15.772Z,26.30
2023-07-29T15:43:43.357Z,25.93
2023-07-29T15:46:11.248Z,25.64
2023-07-29T15:48:38.831Z,25.41
2023-07-29T15:51:07.152Z,25.21
2023-07-29T15:53:35.224Z,25.02
2023-07-29T15:56:02.823Z,25.28
2023-07-29T15:58:30.403Z,26.84
2023-07-29T16:00:58.005Z,27.78
2023-07-29T16:03:26.711Z,27.24
2023-07-29T16:05:54.587Z,26.53
2023-07-29T16:08:22.169Z,26.03
2023-07-29T16:10:49.748Z,25.66
2023-07-29T16:13:19.311Z,25.35
2023-07-29T16:15:47.044Z,25.10
2023-07-29T16:18:14.657Z,24.87
2023-07-29T16:20:42.226Z,24.69
2023-07-29T16:23:10.221Z,24.55
2023-07-29T16:25:37.978Z,24.42
2023-07-29T16:28:05.627Z,24.30
2023-07-29T16:30:33.259Z,24.63
2023-07-29T16:33:00.867Z,26.27
2023-07-29T16:35:28.510Z,27.05
2023-07-29T16:37:58.769Z,26.47
2023-07-29T16:40:26.380Z,25.82
2023-07-29T16:42:54.030Z,25.38
2023-07-29T16:45:21.707Z,25.06
2023-07-29T16:47:49.330Z,24.80
2023-07-29T16:50:17.120Z,24.60
2023-07-29T16:52:44.855Z,24.44
2023-07-29T16:55:12.545Z,24.28
2023-07-29T16:57:40.231Z,24.14
2023-07-29T17:00:08.249Z,24.03
2023-07-29T17:02:36.022Z,23.93
2023-07-29T17:05:05.429Z,23.83
2023-07-29T17:07:33.332Z,24.13
2023-07-29T17:10:00.983Z,25.78
2023-07-29T17:12:28.674Z,26.86
2023-07-29T17:14:56.302Z,26.37
2023-07-29T17:17:23.978Z,25.67
2023-07-29T17:19:51.614Z,25.17
2023-07-29T17:22:19.286Z,24.79
2023-07-29T17:24:47.006Z,24.52
2023-07-29T17:27:14.743Z,24.29
2023-07-29T17:29:43.432Z,24.10
2023-07-29T17:32:11.093Z,23.93
2023-07-29T17:34:38.817Z,23.79
2023-07-29T17:37:06.430Z,24.06
2023-07-29T17:39:34.110Z,25.68
2023-07-29T17:42:01.824Z,26.74
2023-07-29T17:44:29.550Z,26.25
2023-07-29T17:46:57.294Z,25.52
2023-07-29T17:49:24.919Z,25.00
2023-07-29T17:51:52.515Z,24.64
2023-07-29T17:54:20.153Z,24.37
2023-07-29T17:56:47.782Z,24.14
2023-07-29T17:59:15.372Z,24.29
2023-07-29T18:01:43.989Z,25.83
2023-07-29T18:04:11.632Z,26.90
2023-07-29T18:06:39.425Z,26.40
2023-07-29T18:09:07.241Z,25.66
2023-07-29T18:11:34.859Z,25.14
2023-07-29T18:14:02.809Z,24.76
2023-07-29T18:16:30.493Z,24.48
2023-07-29T18:18:58.158Z,24.26
2023-07-29T18:21:25.781Z,24.45
2023-07-29T18:23:53.397Z,26.01
2023-07-29T18:26:21.006Z,27.04
2023-07-29T18:28:48.590Z,26.50
2023-07-29T18:31:16.236Z,25.74
2023-07-29T18:33:43.890Z,25.18
2023-07-29T18:36:11.501Z,24.77
2023-07-29T18:38:39.178Z,24.46
2023-07-29T18:41:06.761Z,24.59
2023-07-29T18:43:34.390Z,26.10
2023-07-29T18:46:02.006Z,27.08
2023-07-29T18:48:29.602Z,26.53
2023-07-29T18:50:57.182Z,25.73
2023-07-29T18:53:25.366Z,25.15
2023-07-29T18:55:53.001Z,24.72
2023-07-29T18:58:21.213Z,24.40
2023-07-29T19:00:50.147Z,24.62
2023-07-29T19:03:17.987Z,26.18
2023-07-29T19:05:46.531Z,27.09
2023-07-29T19:08:14.334Z,26.49
2023-07-29T19:10:41.949Z,25.68
2023-07-29T19:13:09.560Z,25.09
2023-07-29T19:15:38.558Z,24.65
2023-07-29T19:18:06.192Z,24.71
2023-07-29T19:20:34.060Z,26.21
2023-07-29T19:23:01.735Z,27.16
2023-07-29T19:25:29.355Z,26.56
2023-07-29T19:27:56.964Z,25.74
2023-07-29T19:30:24.628Z,25.13
2023-07-29T19:32:52.336Z,24.67
2023-07-29T19:35:19.949Z,24.70
2023-07-29T19:37:47.601Z,26.12
2023-07-29T19:40:15.307Z,27.07
2023-07-29T19:42:42.891Z,26.47
2023-07-29T19:45:10.477Z,25.64
2023-07-29T19:47:38.088Z,25.02
2023-07-29T19:50:05.756Z,24.56
2023-07-29T19:52:33.398Z,24.63
2023-07-29T19:55:01.005Z,26.07
2023-07-29T19:57:28.645Z,27.00
2023-07-29T19:59:56.266Z,26.40
2023-07-29T20:02:23.916Z,25.55
2023-07-29T20:04:51.669Z,24.91
2023-07-29T20:07:19.295Z,24.45
2023-07-29T20:09:46.968Z,24.57
2023-07-29T20:12:14.604Z,26.05
2023-07-29T20:14:42.217Z,27.11
2023-07-29T20:17:10.008Z,26.71
2023-07-29T20:19:37.633Z,25.78
2023-07-29T20:22:05.378Z,25.05
2023-07-29T20:24:32.984Z,24.51
2023-07-29T20:27:00.807Z,24.57
2023-07-29T20:29:28.542Z,26.01
2023-07-29T20:31:56.262Z,27.06
2023-07-29T20:34:24.440Z,26.69
2023-07-29T20:36:52.040Z,25.75
2023-07-29T20:39:19.702Z,25.03
2023-07-29T20:41:47.368Z,24.51
2023-07-29T20:44:15.628Z,24.63
2023-07-29T20:46:43.305Z,26.10
2023-07-29T20:49:10.956Z,27.13
2023-07-29T20:51:38.792Z,26.75
2023-07-29T20:54:06.769Z,25.83
2023-07-29T20:56:34.885Z,25.11
2023-07-29T20:59:02.942Z,24.59
2023-07-29T21:01:30.672Z,24.69
2023-07-29T21:03:58.534Z,26.16
2023-07-29T21:06:26.177Z,27.04
2023-07-29T21:08:53.766Z,26.42
2023-07-29T21:11:21.332Z,25.56
2023-07-29T21:13:51.380Z,24.91
2023-07-29T21:16:19.078Z,24.81
2023-07-29T21:18:46.801Z,26.15
2023-07-29T21:21:14.503Z,27.04
2023-07-29T21:23:42.219Z,26.42
2023-07-29T21:26:09.880Z,25.55
2023-07-29T21:28:37.537Z,24.88
2023-07-29T21:31:05.284Z,24.38
2023-07-29T21:33:34.903Z,24.53
2023-07-29T21:36:02.518Z,26.01
2023-07-29T21:38:30.671Z,26.86
2023-07-29T21:40:58.550Z,26.18
2023-07-29T21:43:26.180Z,25.27
2023-07-29T21:45:53.810Z,24.57
2023-07-29T21:48:21.446Z,24.42
2023-07-29T21:50:51.040Z,25.72
2023-07-29T21:53:19.078Z,26.83
2023-07-29T21:55:46.736Z,26.55
2023-07-29T21:58:14.313Z,25.61
2023-07-29T22:00:42.779Z,24.85
2023-07-29T22:03:10.414Z,24.26
2023-07-29T22:05:38.292Z,24.23
2023-07-29T22:08:05.868Z,25.62
2023-07-29T22:10:33.457Z,26.72
2023-07-29T22:13:01.059Z,26.56
2023-07-29T22:15:29.152Z,25.55
2023-07-29T22:17:56.905Z,24.69
2023-07-29T22:20:26.890Z,24.04
2023-07-29T22:22:56.921Z,24.07
2023-07-29T22:25:24.632Z,25.48
2023-07-29T22:27:52.893Z,26.56
2023-07-29T22:30:20.721Z,26.80
2023-07-29T22:32:48.570Z,25.86
2023-07-29T22:35:16.458Z,24.88
2023-07-29T22:37:44.094Z,24.15
2023-07-29T22:40:11.709Z,24.03
2023-07-29T22:42:39.392Z,25.35
2023-07-29T22:45:06.982Z,26.39
2023-07-29T22:47:34.622Z,26.65
2023-07-29T22:50:02.254Z,25.69
2023-07-29T22:52:30.242Z,24.67
2023-07-29T22:54:57.844Z,23.96
2023-07-29T22:57:25.459Z,23.89
2023-07-29T22:59:53.028Z,25.26
2023-07-29T23:02:22.559Z,26.34
2023-07-29T23:04:50.403Z,26.52
2023-07-29T23:07:18.158Z,25.52
2023-07-29T23:09:45.823Z,24.45
2023-07-29T23:12:13.591Z,24.08
2023-07-29T23:14:42.695Z,25.18
2023-07-29T23:17:12.239Z,26.13
2023-07-29T23:19:39.951Z,25.72
2023-07-29T23:22:07.818Z,24.64
2023-07-29T23:24:35.482Z,23.84
2023-07-29T23:27:03.159Z,23.70
2023-07-29T23:29:31.018Z,24.96
2023-07-29T23:31:58.819Z,26.05
2023-07-29T23:34:26.644Z,26.23
2023-07-29T23:36:54.407Z,25.29
2023-07-29T23:39:22.177Z,24.34
2023-07-29T23:41:49.940Z,24.00
2023-07-29T23:44:17.700Z,25.07
2023-07-29T23:46:45.584Z,26.05
2023-07-29T23:49:13.205Z,26.18
2023-07-29T23:51:40.802Z,25.17
2023-07-29T23:54:09.201Z,24.21
2023-07-29T23:56:36.934Z,23.89
2023-07-29T23:59:04.521Z,25.06
